createdAt,value
2023-01-28T00:01:06.452Z,-0.09
2023-01-28T00:03:35.344Z,-0.09
2023-01-28T00:06:04.346Z,-0.09
2023-01-28T00:08:34.780Z,-0.08
2023-01-28T00:11:04.817Z,-0.08
2023-01-28T00:13:33.996Z,-0.11
2023-01-28T00:16:04.917Z,-0.11
2023-01-28T00:18:33.641Z,-0.12
2023-01-28T00:21:03.328Z,-0.10
2023-01-28T00:23:34.605Z,-0.09
2023-01-28T00:26:05.968Z,-0.07
2023-01-28T00:28:34.409Z,-0.07
2023-01-28T00:31:07.962Z,-0.05
2023-01-28T00:33:36.208Z,-0.06
2023-01-28T00:36:06.714Z,-0.10
2023-01-28T00:38:36.397Z,-0.09
2023-01-28T00:41:11.180Z,-0.11
2023-01-28T00:43:39.752Z,-0.08
2023-01-28T00:46:08.733Z,-0.09
2023-01-28T00:48:37.034Z,-0.09
2023-01-28T00:51:05.659Z,-0.10
2023-01-28T00:53:34.630Z,-0.10
2023-01-28T00:56:04.736Z,-0.11
2023-01-28T00:58:34.469Z,-0.08
2023-01-28T01:01:08.508Z,-0.10
2023-01-28T01:03:37.068Z,-0.09
2023-01-28T01:06:06.041Z,-0.06
2023-01-28T01:08:40.111Z,-0.07
2023-01-28T01:11:11.168Z,-0.09
2023-01-28T01:13:40.108Z,-0.10
2023-01-28T01:16:10.279Z,-0.10
2023-01-28T01:18:41.898Z,-0.10
2023-01-28T01:21:12.059Z,-0.08
2023-01-28T01:23:40.590Z,-0.06
2023-01-28T01:26:10.377Z,-0.02
2023-01-28T01:28:38.818Z,-0.05
2023-01-28T01:31:09.574Z,-0.04
2023-01-28T01:33:39.836Z,0.03
2023-01-28T01:36:09.045Z,-0.01
2023-01-28T01:38:38.034Z,-0.04
2023-01-28T01:41:06.566Z,-0.04
2023-01-28T01:43:50.891Z,-0.07
2023-01-28T01:46:23.348Z,-0.05
2023-01-28T01:48:52.111Z,-0.07
2023-01-28T01:51:23.332Z,-0.06
2023-01-28T01:53:54.387Z,-0.02
2023-01-28T01:56:25.391Z,-0.06
2023-01-28T01:58:57.128Z,-0.06
2023-01-28T02:01:28.862Z,-0.05
2023-01-28T02:04:02.401Z,-0.05
2023-01-28T02:06:31.289Z,-0.02
2023-01-28T02:09:00.320Z,-0.02
2023-01-28T02:11:30.680Z,-0.05
2023-01-28T02:14:04.098Z,-0.05
2023-01-28T02:16:33.439Z,-0.05
2023-01-28T02:19:01.796Z,-0.06
2023-01-28T02:21:48.085Z,-0.06
2023-01-28T02:24:30.513Z,-0.02
2023-01-28T02:27:12.283Z,-0.04
2023-01-28T02:29:45.741Z,-0.06
2023-01-28T02:32:16.980Z,-0.05
2023-01-28T02:34:48.164Z,-0.04
2023-01-28T02:37:18.778Z,-0.06
2023-01-28T02:39:50.167Z,-0.06
2023-01-28T02:42:21.178Z,-0.10
2023-01-28T02:44:50.743Z,-0.08
2023-01-28T02:47:36.926Z,-0.04
2023-01-28T02:50:08.415Z,-0.04
2023-01-28T02:53:05.676Z,-0.03
2023-01-28T02:55:41.181Z,-0.03
2023-01-28T02:58:12.569Z,-0.05
2023-01-28T03:00:47.445Z,-0.05
2023-01-28T03:03:19.087Z,-0.03
2023-01-28T03:06:04.194Z,-0.02
2023-01-28T03:08:53.684Z,-0.05
2023-01-28T03:11:39.753Z,-0.05
2023-01-28T03:14:27.579Z,-0.05
2023-01-28T03:17:18.671Z,-0.05
2023-01-28T03:20:04.848Z,0.01
2023-01-28T03:22:53.468Z,-0.01
2023-01-28T03:25:40.077Z,0.00
2023-01-28T03:28:30.145Z,0.05
2023-01-28T03:31:21.762Z,0.00
2023-01-28T03:34:12.652Z,0.00
2023-01-28T03:36:53.306Z,-0.01
2023-01-28T03:39:40.264Z,-0.04
2023-01-28T03:42:13.807Z,-0.02
2023-01-28T03:45:09.034Z,-0.03
2023-01-28T03:47:40.495Z,-0.01
2023-01-28T03:50:12.383Z,0.01
2023-01-28T03:52:51.071Z,0.02
2023-01-28T03:55:30.555Z,-0.02
2023-01-28T03:57:58.721Z,-0.04
2023-01-28T04:00:27.470Z,-0.03
2023-01-28T04:02:56.946Z,0.00
2023-01-28T04:05:27.132Z,0.02
2023-01-28T04:07:55.778Z,-0.02
2023-01-28T04:10:48.781Z,-0.02
2023-01-28T04:13:24.611Z,0.01
2023-01-28T04:15:53.175Z,-0.02
2023-01-28T04:18:27.266Z,-0.04
2023-01-28T04:20:58.906Z,0.01
2023-01-28T04:23:28.193Z,0.01
2023-01-28T04:25:56.432Z,0.04
2023-01-28T04:28:24.814Z,0.01
2023-01-28T04:30:53.569Z,-0.01
2023-01-28T04:33:35.117Z,-0.03
2023-01-28T04:36:24.940Z,0.00
2023-01-28T04:39:11.369Z,-0.02
2023-01-28T04:41:47.636Z,-0.05
2023-01-28T04:44:22.121Z,-0.01
2023-01-28T04:47:09.017Z,-0.01
2023-01-28T04:49:52.091Z,0.03
2023-01-28T04:52:34.726Z,0.06
2023-01-28T04:55:10.728Z,0.02
2023-01-28T04:57:38.837Z,0.03
2023-01-28T05:00:10.069Z,0.01
2023-01-28T05:02:38.204Z,0.01
2023-01-28T05:05:08.961Z,0.01
2023-01-28T05:08:01.561Z,0.00
2023-01-28T05:10:30.600Z,0.03
2023-01-28T05:12:59.324Z,0.05
2023-01-28T05:15:27.386Z,0.04
2023-01-28T05:17:57.245Z,0.03
2023-01-28T05:20:26.676Z,0.01
2023-01-28T05:22:57.709Z,0.01
2023-01-28T05:25:32.407Z,0.01
2023-01-28T05:28:00.470Z,0.00
2023-01-28T05:30:28.884Z,0.08
2023-01-28T05:32:57.898Z,0.10
2023-01-28T05:35:26.616Z,0.05
2023-01-28T05:37:54.807Z,0.00
2023-01-28T05:40:23.566Z,-0.05
2023-01-28T05:42:54.014Z,-0.06
2023-01-28T05:45:27.812Z,-0.07
2023-01-28T05:48:09.493Z,-0.06
2023-01-28T05:50:58.209Z,-0.11
2023-01-28T05:53:37.844Z,-0.11
2023-01-28T05:56:07.762Z,-0.10
2023-01-28T05:58:38.896Z,-0.11
2023-01-28T06:01:07.354Z,-0.12
2023-01-28T06:03:43.130Z,-0.11
2023-01-28T06:06:11.278Z,-0.12
2023-01-28T06:08:39.467Z,-0.11
2023-01-28T06:11:07.815Z,-0.09
2023-01-28T06:13:37.941Z,-0.09
2023-01-28T06:16:24.880Z,-0.09
2023-01-28T06:19:21.845Z,-0.09
2023-01-28T06:21:49.970Z,-0.09
2023-01-28T06:24:19.832Z,-0.06
2023-01-28T06:26:48.018Z,-0.04
2023-01-28T06:29:17.896Z,-0.04
2023-01-28T06:31:45.956Z,-0.03
2023-01-28T06:34:15.391Z,-0.02
2023-01-28T06:36:43.708Z,-0.01
2023-01-28T06:39:12.109Z,-0.01
2023-01-28T06:41:41.089Z,-0.03
2023-01-28T06:44:09.787Z,-0.02
2023-01-28T06:46:39.606Z,0.00
2023-01-28T06:49:07.776Z,-0.01
2023-01-28T06:51:35.903Z,0.00
2023-01-28T06:54:04.211Z,0.01
2023-01-28T06:56:32.423Z,0.02
2023-01-28T06:59:00.511Z,0.03
2023-01-28T07:01:28.807Z,0.01
2023-01-28T07:03:58.815Z,-0.01
2023-01-28T07:06:27.024Z,-0.01
2023-01-28T07:08:55.142Z,0.01
2023-01-28T07:11:23.492Z,0.03
2023-01-28T07:13:51.707Z,0.03
2023-01-28T07:16:19.785Z,0.02
2023-01-28T07:18:47.954Z,0.03
2023-01-28T07:21:17.438Z,0.03
2023-01-28T07:23:46.527Z,0.05
2023-01-28T07:26:15.464Z,0.04
2023-01-28T07:28:43.821Z,0.04
2023-01-28T07:31:12.077Z,0.05
2023-01-28T07:33:40.540Z,0.06
2023-01-28T07:36:09.186Z,0.05
2023-01-28T07:38:38.855Z,0.06
2023-01-28T07:41:07.943Z,0.06
2023-01-28T07:43:36.384Z,0.06
2023-01-28T07:46:04.658Z,0.08
2023-01-28T07:48:32.898Z,0.07
2023-01-28T07:51:01.556Z,0.11
2023-01-28T07:53:29.761Z,0.11
2023-01-28T07:56:02.745Z,0.13
2023-01-28T07:58:32.551Z,0.11
2023-01-28T08:01:00.797Z,0.15
2023-01-28T08:03:29.575Z,0.16
2023-01-28T08:05:58.263Z,0.17
2023-01-28T08:08:27.758Z,0.16
2023-01-28T08:10:55.863Z,0.20
2023-01-28T08:13:25.594Z,0.20
2023-01-28T08:15:57.043Z,0.19
2023-01-28T08:18:25.275Z,0.20
2023-01-28T08:20:56.487Z,0.21
2023-01-28T08:23:26.935Z,0.23
2023-01-28T08:25:55.489Z,0.26
2023-01-28T08:28:25.108Z,0.27
2023-01-28T08:30:53.692Z,0.29
2023-01-28T08:33:22.019Z,0.30
2023-01-28T08:35:50.265Z,0.33
2023-01-28T08:38:20.287Z,0.35
2023-01-28T08:40:50.407Z,0.38
2023-01-28T08:43:18.505Z,0.40
2023-01-28T08:45:48.231Z,0.42
2023-01-28T08:48:18.431Z,0.44
2023-01-28T08:50:46.796Z,0.48
2023-01-28T08:53:16.907Z,0.52
2023-01-28T08:55:45.454Z,0.53
2023-01-28T08:58:14.890Z,0.61
2023-01-28T09:00:43.670Z,0.73
2023-01-28T09:03:13.293Z,0.72
2023-01-28T09:05:41.935Z,0.75
2023-01-28T09:08:12.065Z,0.71
2023-01-28T09:10:41.940Z,0.75
2023-01-28T09:13:11.789Z,0.72
2023-01-28T09:15:40.048Z,0.77
2023-01-28T09:18:08.412Z,0.77
2023-01-28T09:20:38.016Z,0.80
2023-01-28T09:23:06.364Z,0.81
2023-01-28T09:25:36.242Z,0.82
2023-01-28T09:28:04.663Z,0.85
2023-01-28T09:30:34.474Z,0.91
2023-01-28T09:33:04.415Z,0.93
2023-01-28T09:35:32.669Z,0.93
2023-01-28T09:38:02.183Z,0.99
2023-01-28T09:40:34.477Z,1.04
2023-01-28T09:43:35.361Z,1.02
2023-01-28T09:46:06.374Z,1.05
2023-01-28T09:48:38.135Z,1.16
2023-01-28T09:51:09.648Z,1.11
2023-01-28T09:53:42.299Z,1.14
2023-01-28T09:56:14.671Z,1.14
2023-01-28T09:58:42.945Z,1.24
2023-01-28T10:01:33.169Z,1.22
2023-01-28T10:04:07.248Z,1.19
2023-01-28T10:06:44.241Z,1.20
2023-01-28T10:09:22.593Z,1.15
2023-01-28T10:12:09.726Z,1.18
2023-01-28T10:14:47.965Z,1.17
2023-01-28T10:17:19.065Z,1.19
2023-01-28T10:19:49.585Z,1.25
2023-01-28T10:22:20.721Z,1.23
2023-01-28T10:24:52.237Z,1.23
2023-01-28T10:27:21.499Z,1.23
2023-01-28T10:29:51.141Z,1.29
2023-01-28T10:32:24.796Z,1.27
2023-01-28T10:34:53.251Z,1.26
2023-01-28T10:37:22.214Z,1.25
2023-01-28T10:39:59.726Z,1.26
2023-01-28T10:42:29.323Z,1.31
2023-01-28T10:44:59.587Z,1.32
2023-01-28T10:47:31.267Z,1.33
2023-01-28T10:50:00.900Z,1.32
2023-01-28T10:52:29.075Z,1.33
2023-01-28T10:55:02.326Z,1.33
2023-01-28T10:57:31.006Z,1.36
2023-01-28T10:59:59.322Z,1.40
2023-01-28T11:02:32.232Z,1.43
2023-01-28T11:05:07.111Z,1.48
2023-01-28T11:07:35.255Z,1.50
2023-01-28T11:10:05.106Z,1.53
2023-01-28T11:12:33.189Z,1.58
2023-01-28T11:15:02.947Z,1.61
2023-01-28T11:17:33.433Z,1.64
2023-01-28T11:20:03.337Z,1.70
2023-01-28T11:22:34.534Z,1.68
2023-01-28T11:25:07.718Z,1.82
2023-01-28T11:27:35.961Z,1.80
2023-01-28T11:30:04.946Z,1.78
2023-01-28T11:32:33.285Z,1.76
2023-01-28T11:35:01.505Z,1.80
2023-01-28T11:37:30.080Z,1.82
2023-01-28T11:40:21.713Z,1.80
2023-01-28T11:42:51.909Z,1.84
2023-01-28T11:45:22.334Z,1.83
2023-01-28T11:48:08.340Z,1.82
2023-01-28T11:50:42.905Z,1.80
2023-01-28T11:53:27.155Z,1.80
2023-01-28T11:56:08.638Z,1.78
2023-01-28T11:58:45.197Z,1.80
2023-01-28T12:01:16.745Z,1.78
2023-01-28T12:03:57.085Z,1.77
2023-01-28T12:06:37.805Z,1.91
2023-01-28T12:09:15.048Z,1.77
2023-01-28T12:12:11.010Z,1.85
2023-01-28T12:14:49.259Z,1.78
2023-01-28T12:17:26.225Z,1.72
2023-01-28T12:20:02.554Z,1.78
2023-01-28T12:23:01.188Z,1.76
2023-01-28T12:25:40.237Z,1.75
2023-01-28T12:28:17.488Z,1.78
2023-01-28T12:30:59.347Z,1.74
2023-01-28T12:33:41.599Z,1.71
2023-01-28T12:36:17.591Z,1.77
2023-01-28T12:38:51.497Z,1.77
2023-01-28T12:41:20.337Z,1.86
2023-01-28T12:43:56.827Z,1.88
2023-01-28T12:46:33.284Z,1.86
2023-01-28T12:49:04.854Z,1.89
2023-01-28T12:51:37.082Z,1.90
2023-01-28T12:54:08.248Z,1.89
2023-01-28T12:56:39.163Z,1.85
2023-01-28T12:59:13.838Z,1.85
2023-01-28T13:01:44.002Z,1.87
2023-01-28T13:04:19.821Z,1.81
2023-01-28T13:06:50.605Z,1.84
2023-01-28T13:09:21.399Z,1.84
2023-01-28T13:11:51.572Z,1.81
2023-01-28T13:14:25.069Z,1.82
2023-01-28T13:16:53.405Z,1.75
2023-01-28T13:19:26.650Z,1.75
2023-01-28T13:21:54.788Z,1.76
2023-01-28T13:24:32.980Z,1.79
2023-01-28T13:27:12.418Z,1.82
2023-01-28T13:29:42.306Z,1.74
2023-01-28T13:32:32.448Z,1.77
2023-01-28T13:35:03.539Z,1.75
2023-01-28T13:37:34.175Z,1.82
2023-01-28T13:40:06.149Z,1.77
2023-01-28T13:42:34.350Z,1.87
2023-01-28T13:45:25.488Z,1.86
2023-01-28T13:47:56.322Z,1.79
2023-01-28T13:50:26.928Z,1.82
2023-01-28T13:52:59.600Z,1.80
2023-01-28T13:55:43.369Z,1.81
2023-01-28T13:58:47.514Z,1.77
2023-01-28T14:01:33.095Z,1.77
2023-01-28T14:04:36.861Z,1.81
2023-01-28T14:07:25.067Z,1.83
2023-01-28T14:10:20.216Z,1.85
2023-01-28T14:13:03.234Z,1.81
2023-01-28T14:15:47.631Z,1.81
2023-01-28T14:18:24.529Z,1.81
2023-01-28T14:20:54.296Z,1.81
2023-01-28T14:23:23.379Z,1.78
2023-01-28T14:26:00.542Z,1.78
2023-01-28T14:28:37.113Z,1.84
2023-01-28T14:31:09.096Z,1.87
2023-01-28T14:33:39.062Z,1.88
2023-01-28T14:36:08.271Z,1.85
2023-01-28T14:38:42.248Z,1.85
2023-01-28T14:41:10.642Z,1.86
2023-01-28T14:43:40.056Z,1.85
2023-01-28T14:46:20.655Z,1.82
2023-01-28T14:48:58.758Z,1.83
2023-01-28T14:51:40.987Z,1.80
2023-01-28T14:54:20.922Z,1.82
2023-01-28T14:57:00.471Z,1.78
2023-01-28T14:59:32.978Z,1.77
2023-01-28T15:02:03.178Z,1.83
2023-01-28T15:04:35.746Z,1.77
2023-01-28T15:07:17.855Z,1.74
2023-01-28T15:09:46.489Z,1.77
2023-01-28T15:12:15.828Z,1.78
2023-01-28T15:14:44.521Z,1.78
2023-01-28T15:17:25.411Z,1.80
2023-01-28T15:19:56.518Z,1.76
2023-01-28T15:22:29.106Z,1.75
2023-01-28T15:24:57.572Z,1.73
2023-01-28T15:27:29.522Z,1.72
2023-01-28T15:29:58.807Z,1.76
2023-01-28T15:32:28.528Z,1.75
2023-01-28T15:35:00.291Z,1.80
2023-01-28T15:37:28.536Z,1.77
2023-01-28T15:40:06.021Z,1.76
2023-01-28T15:42:34.448Z,1.70
2023-01-28T15:45:03.320Z,1.69
2023-01-28T15:47:33.980Z,1.64
2023-01-28T15:50:05.650Z,1.60
2023-01-28T15:52:35.474Z,1.61
2023-01-28T15:55:06.537Z,1.60
2023-01-28T15:57:36.041Z,1.59
2023-01-28T16:00:13.224Z,1.64
2023-01-28T16:02:45.059Z,1.60
2023-01-28T16:05:29.515Z,1.54
2023-01-28T16:07:58.885Z,1.55
2023-01-28T16:10:29.418Z,1.57
2023-01-28T16:13:05.319Z,1.56
2023-01-28T16:15:33.734Z,1.57
2023-01-28T16:18:04.003Z,1.60
2023-01-28T16:20:34.072Z,1.60
2023-01-28T16:23:03.914Z,1.61
2023-01-28T16:25:33.602Z,1.58
2023-01-28T16:28:03.339Z,1.58
2023-01-28T16:30:31.469Z,1.57
2023-01-28T16:33:00.303Z,1.56
2023-01-28T16:35:46.903Z,1.54
2023-01-28T16:38:19.913Z,1.52
2023-01-28T16:40:48.710Z,1.55
2023-01-28T16:43:17.816Z,1.52
2023-01-28T16:45:47.001Z,1.50
2023-01-28T16:48:15.126Z,1.49
2023-01-28T16:50:44.199Z,1.53
2023-01-28T16:53:20.638Z,1.53
2023-01-28T16:55:50.858Z,1.48
2023-01-28T16:58:22.259Z,1.47
2023-01-28T17:00:50.570Z,1.48
2023-01-28T17:03:18.816Z,1.46
2023-01-28T17:05:47.164Z,1.45
2023-01-28T17:08:15.448Z,1.46
2023-01-28T17:10:45.193Z,1.45
2023-01-28T17:13:13.433Z,1.46
2023-01-28T17:15:42.693Z,1.44
2023-01-28T17:18:11.265Z,1.43
2023-01-28T17:20:40.415Z,1.42
2023-01-28T17:23:09.153Z,1.40
2023-01-28T17:25:39.251Z,1.39
2023-01-28T17:28:09.900Z,1.40
2023-01-28T17:30:41.271Z,1.39
2023-01-28T17:33:10.484Z,1.35
2023-01-28T17:35:38.827Z,1.38
2023-01-28T17:38:07.310Z,1.38
2023-01-28T17:40:35.418Z,1.41
2023-01-28T17:43:03.678Z,1.38
2023-01-28T17:45:33.601Z,1.37
2023-01-28T17:48:02.296Z,1.35
2023-01-28T17:50:30.596Z,1.34
2023-01-28T17:52:59.018Z,1.36
2023-01-28T17:55:27.558Z,1.36
2023-01-28T17:57:55.762Z,1.34
2023-01-28T18:00:26.226Z,1.34
2023-01-28T18:02:55.773Z,1.33
2023-01-28T18:05:24.067Z,1.34
2023-01-28T18:09:42.894Z,1.28
2023-01-28T18:12:15.449Z,1.26
2023-01-28T18:14:43.900Z,1.25
2023-01-28T18:17:12.624Z,1.25
2023-01-28T18:19:41.113Z,1.25
2023-01-28T18:22:09.904Z,1.23
2023-01-28T18:24:38.239Z,1.21
2023-01-28T18:27:08.026Z,1.19
2023-01-28T18:29:36.332Z,1.18
2023-01-28T18:32:06.381Z,1.18
2023-01-28T18:34:35.067Z,1.17
2023-01-28T18:37:06.551Z,1.15
2023-01-28T18:39:35.450Z,1.15
2023-01-28T18:42:03.886Z,1.15
2023-01-28T18:44:33.661Z,1.13
2023-01-28T18:47:01.897Z,1.10
2023-01-28T18:49:30.232Z,1.08
2023-01-28T18:51:59.453Z,1.09
2023-01-28T18:54:27.827Z,1.12
2023-01-28T18:56:56.516Z,1.10
2023-01-28T18:59:25.085Z,1.10
2023-01-28T19:01:55.131Z,1.10
2023-01-28T19:04:23.651Z,1.10
2023-01-28T19:06:52.099Z,1.08
2023-01-28T19:09:20.965Z,1.07
2023-01-28T19:11:50.803Z,1.05
2023-01-28T19:14:19.385Z,1.07
2023-01-28T19:16:47.981Z,1.07
2023-01-28T19:19:17.766Z,1.08
2023-01-28T19:21:46.108Z,1.07
2023-01-28T19:24:14.992Z,1.05
2023-01-28T19:26:45.425Z,1.05
2023-01-28T19:29:16.239Z,1.04
2023-01-28T19:31:48.618Z,1.04
2023-01-28T19:34:18.605Z,1.03
2023-01-28T19:36:47.600Z,1.05
2023-01-28T19:39:16.740Z,1.04
2023-01-28T19:41:45.814Z,1.00
2023-01-28T19:44:14.215Z,0.99
2023-01-28T19:46:42.756Z,0.95
2023-01-28T19:49:12.566Z,0.93
2023-01-28T19:51:42.301Z,0.91
2023-01-28T19:54:10.867Z,0.90
2023-01-28T19:56:39.229Z,0.91
2023-01-28T19:59:07.723Z,0.92
2023-01-28T20:01:36.768Z,0.91
2023-01-28T20:04:05.799Z,0.91
2023-01-28T20:06:35.927Z,0.88
2023-01-28T20:09:08.580Z,0.85
2023-01-28T20:11:37.787Z,0.86
2023-01-28T20:14:06.198Z,0.83
2023-01-28T20:16:36.716Z,0.82
2023-01-28T20:19:07.467Z,0.83
2023-01-28T20:21:36.980Z,0.79
2023-01-28T20:24:07.915Z,0.79
2023-01-28T20:26:39.027Z,0.75
2023-01-28T20:29:10.669Z,0.75
2023-01-28T20:31:41.696Z,0.75
2023-01-28T20:34:17.097Z,0.73
2023-01-28T20:36:46.206Z,0.73
2023-01-28T20:39:16.200Z,0.72
2023-01-28T20:41:44.850Z,0.72
2023-01-28T20:44:13.282Z,0.67
2023-01-28T20:46:41.655Z,0.70
2023-01-28T20:49:10.733Z,0.68
2023-01-28T20:51:39.411Z,0.65
2023-01-28T20:54:07.755Z,0.63
2023-01-28T20:56:37.542Z,0.63
2023-01-28T20:59:07.568Z,0.64
2023-01-28T21:01:37.022Z,0.66
2023-01-28T21:04:09.659Z,0.60
2023-01-28T21:06:39.862Z,0.58
2023-01-28T21:09:08.960Z,0.57
2023-01-28T21:11:38.697Z,0.60
2023-01-28T21:14:07.188Z,0.59
2023-01-28T21:16:41.070Z,0.56
2023-01-28T21:19:09.642Z,0.55
2023-01-28T21:21:37.975Z,0.55
2023-01-28T21:24:08.231Z,0.54
2023-01-28T21:26:38.035Z,0.51
2023-01-28T21:29:06.867Z,0.49
2023-01-28T21:31:35.243Z,0.47
2023-01-28T21:34:03.775Z,0.45
2023-01-28T21:36:34.271Z,0.43
2023-01-28T21:39:03.425Z,0.40
2023-01-28T21:41:32.847Z,0.42
2023-01-28T21:44:03.047Z,0.43
2023-01-28T21:46:34.737Z,0.42
2023-01-28T21:49:05.489Z,0.43
2023-01-28T21:51:39.103Z,0.39
2023-01-28T21:54:11.114Z,0.40
2023-01-28T21:56:39.565Z,0.41
2023-01-28T21:59:29.697Z,0.38
2023-01-28T22:01:59.846Z,0.40
2023-01-28T22:04:32.577Z,0.37
2023-01-28T22:07:02.276Z,0.35
2023-01-28T22:09:31.177Z,0.31
2023-01-28T22:11:59.583Z,0.33
2023-01-28T22:14:29.220Z,0.31
2023-01-28T22:16:57.917Z,0.28
2023-01-28T22:19:26.437Z,0.23
2023-01-28T22:21:54.813Z,0.24
2023-01-28T22:24:25.303Z,0.22
2023-01-28T22:26:54.590Z,0.23
2023-01-28T22:29:24.612Z,0.24
2023-01-28T22:31:55.631Z,0.22
2023-01-28T22:34:24.509Z,0.22
2023-01-28T22:36:53.252Z,0.22
2023-01-28T22:39:22.086Z,0.21
2023-01-28T22:41:50.481Z,0.20
2023-01-28T22:44:19.931Z,0.18
2023-01-28T22:46:48.827Z,0.17
2023-01-28T22:49:18.499Z,0.18
2023-01-28T22:51:47.115Z,0.20
2023-01-28T22:54:15.638Z,0.19
2023-01-28T22:56:44.211Z,0.12
2023-01-28T22:59:12.919Z,0.11
2023-01-28T23:01:41.730Z,0.09
2023-01-28T23:04:10.117Z,0.07
2023-01-28T23:06:39.992Z,0.08
2023-01-28T23:09:08.351Z,0.08
2023-01-28T23:11:36.979Z,0.09
2023-01-28T23:14:23.435Z,0.07
2023-01-28T23:17:09.955Z,0.07
2023-01-28T23:19:56.110Z,0.07
2023-01-28T23:22:52.162Z,0.09
2023-01-28T23:25:21.245Z,0.05
2023-01-28T23:27:49.658Z,0.04
2023-01-28T23:30:24.433Z,0.05
2023-01-28T23:32:57.485Z,0.02
2023-01-28T23:35:26.535Z,0.00
2023-01-28T23:37:56.791Z,0.04
2023-01-28T23:40:27.119Z,-0.01
2023-01-28T23:42:57.036Z,-0.04
2023-01-28T23:45:25.482Z,-0.03
2023-01-28T23:47:53.808Z,-0.07
2023-01-28T23:50:22.914Z,-0.04
2023-01-28T23:52:51.180Z,-0.03
2023-01-28T23:55:21.035Z,-0.04
2023-01-28T23:57:49.315Z,-0.04
